Elwell, Michigan
Current Conditions -  °F | °C
As of 12:11 AM on Saturday 25 Oct 2014 (Local Time) from KAMN Reporting Station
Moderate Fog Moderate Fog  
Wind Chill: 39°   Ceiling: 500
Heat Index: 39°   Visibility: 0.25mi
Dew Point: 38°   Wind: 0mph
Humidity: 98%   Direction: NA
Pressure: 29.93"   Gusts: NA
Location:  43.39°N, 84.75°W
Report Text: KAMN 250411Z AUTO 00000KT 1/4SM FG OVC005 04/03 A2993 RMK AO2 T00370034
Loading
Personal Weather Stations






























Interactive Weather Map
Tropical Storm Tracking
New forecast layout! Learn more

10-Day Weather Forecast

Advertisements
Track Severe Weather on mobile